Time;durP1;ratioP1;P1;durP2;ratioP2;P2;SDS_P1;SDS_P2;PMS_P1;PMS_P2;Temp;Humidity;BMP_temperature;BMP_pressure;BME280_temperature;BME280_humidity;BME280_pressure;Samples;Min_cycle;Max_cycle;Signal;HPM_P1;HPM_P2
2024/01/27 00:01:36;;;;;;;;;;;5.20;80.70;;;;;;4156304;28;19965;-82
2024/01/27 00:03:37;;;;;;;;;;;5.10;80.90;;;;;;4139286;28;20100;-82
2024/01/27 00:05:38;;;;;;;;;;;5.10;80.90;;;;;;4156872;28;19924;-83
2024/01/27 00:07:40;;;;;;;;;;;5.10;80.90;;;;;;4159251;28;19986;-82
2024/01/27 00:09:40;;;;;;;;;;;5.10;81.10;;;;;;4162566;28;19946;-82
2024/01/27 00:11:42;;;;;;;;;;;5.10;81.20;;;;;;4157774;28;19921;-84
2024/01/27 00:14:03;;;;;;;;;;;5.10;81.40;;;;;;4180016;28;19917;-82
2024/01/27 00:16:23;;;;;;;;;;;5.00;81.40;;;;;;4186576;28;19943;-83
2024/01/27 00:18:24;;;;;;;;;;;5.00;81.40;;;;;;4180400;28;19925;-82
2024/01/27 00:20:44;;;;;;;;;;;5.10;81.50;;;;;;4175108;28;20020;-83
2024/01/27 00:22:45;;;;;;;;;;;5.00;81.60;;;;;;4159194;28;19967;-83
2024/01/27 00:25:05;;;;;;;;;;;5.00;81.60;;;;;;4159442;28;20637;-82
2024/01/27 00:27:26;;;;;;;;;;;5.00;81.70;;;;;;4159853;28;19921;-82
2024/01/27 00:29:27;;;;;;;;;;;5.00;81.60;;;;;;4159540;28;19921;-82
2024/01/27 00:31:49;;;;;;;;;;;5.00;81.70;;;;;;4158175;28;20026;-83
2024/01/27 00:34:09;;;;;;;;;;;5.00;81.90;;;;;;4158140;28;20526;-82
2024/01/27 00:36:30;;;;;;;;;;;4.90;82.00;;;;;;4158743;28;20269;-82
2024/01/27 00:38:50;;;;;;;;;;;4.90;82.20;;;;;;4158360;28;20331;-81
2024/01/27 00:41:17;;;;;;;;;;;4.90;82.40;;;;;;4160678;28;20075;-83
2024/01/27 00:43:38;;;;;;;;;;;4.90;82.50;;;;;;4160068;28;19925;-83
2024/01/27 00:45:58;;;;;;;;;;;5.00;82.60;;;;;;4161683;28;21128;-82
2024/01/27 00:48:19;;;;;;;;;;;4.90;82.80;;;;;;4157027;28;19924;-81
2024/01/27 00:50:40;;;;;;;;;;;4.90;82.80;;;;;;4159416;28;20349;-82
2024/01/27 00:52:40;;;;;;;;;;;4.90;83.00;;;;;;4159991;28;19929;-83
2024/01/27 00:54:41;;;;;;;;;;;4.90;83.10;;;;;;4161059;28;20310;-82
2024/01/27 00:56:42;;;;;;;;;;;5.00;83.30;;;;;;4158242;28;20066;-82
2024/01/27 00:58:43;;;;;;;;;;;5.00;83.30;;;;;;4159293;28;19991;-81
2024/01/27 01:00:43;;;;;;;;;;;5.00;83.30;;;;;;4157363;28;20224;-83
2024/01/27 01:02:44;;;;;;;;;;;5.00;83.40;;;;;;4156018;28;19920;-83
2024/01/27 01:04:45;;;;;;;;;;;5.00;83.60;;;;;;4156834;28;19928;-82
2024/01/27 01:06:45;;;;;;;;;;;5.00;83.60;;;;;;4157934;28;19921;-85
2024/01/27 01:08:46;;;;;;;;;;;5.00;83.80;;;;;;4156653;28;20033;-86
2024/01/27 01:10:46;;;;;;;;;;;5.00;83.80;;;;;;4159600;28;20024;-85
2024/01/27 01:12:47;;;;;;;;;;;5.00;83.90;;;;;;4158747;28;19921;-85
2024/01/27 01:14:47;;;;;;;;;;;5.00;83.90;;;;;;4143589;28;19987;-85
2024/01/27 01:16:48;;;;;;;;;;;5.10;83.90;;;;;;4156011;28;19921;-85
2024/01/27 01:18:48;;;;;;;;;;;5.10;83.80;;;;;;4137266;28;19925;-84
2024/01/27 01:20:50;;;;;;;;;;;5.10;83.80;;;;;;4151419;28;20015;-82
2024/01/27 01:22:51;;;;;;;;;;;5.20;83.80;;;;;;4157812;28;20489;-82
2024/01/27 01:24:52;;;;;;;;;;;5.10;83.80;;;;;;4137137;28;19960;-83
2024/01/27 01:26:54;;;;;;;;;;;5.20;83.70;;;;;;4154754;28;19925;-83
2024/01/27 01:29:14;;;;;;;;;;;5.20;83.80;;;;;;4157397;28;19921;-82
2024/01/27 01:31:35;;;;;;;;;;;5.20;83.80;;;;;;4158046;28;19921;-83
2024/01/27 01:33:56;;;;;;;;;;;5.20;83.70;;;;;;4156913;28;20148;-82
2024/01/27 01:36:16;;;;;;;;;;;5.20;83.80;;;;;;4155674;28;19963;-81
2024/01/27 01:38:37;;;;;;;;;;;5.30;83.90;;;;;;4164282;28;19944;-83
2024/01/27 01:40:57;;;;;;;;;;;5.30;83.80;;;;;;4160711;28;20358;-83
2024/01/27 01:43:18;;;;;;;;;;;5.30;83.90;;;;;;4159105;28;19913;-82
2024/01/27 01:45:38;;;;;;;;;;;5.30;83.90;;;;;;4160662;28;19921;-81
2024/01/27 01:47:59;;;;;;;;;;;5.30;83.90;;;;;;4163620;28;19921;-82
2024/01/27 01:50:20;;;;;;;;;;;5.30;83.80;;;;;;4162423;28;20013;-83
2024/01/27 01:52:40;;;;;;;;;;;5.30;83.70;;;;;;4161235;28;20012;-83
2024/01/27 01:55:01;;;;;;;;;;;5.40;83.60;;;;;;4161023;28;20349;-83
2024/01/27 01:57:21;;;;;;;;;;;5.40;83.50;;;;;;4159984;28;19925;-83
2024/01/27 01:59:42;;;;;;;;;;;5.30;83.40;;;;;;4161288;28;19963;-84
2024/01/27 02:02:03;;;;;;;;;;;5.30;83.20;;;;;;4160809;28;21222;-86
2024/01/27 02:04:23;;;;;;;;;;;5.30;83.30;;;;;;4158716;28;19921;-83
2024/01/27 02:06:44;;;;;;;;;;;5.30;83.30;;;;;;4156043;28;19981;-85
2024/01/27 02:09:05;;;;;;;;;;;5.40;83.40;;;;;;4156929;28;19921;-86
2024/01/27 02:11:25;;;;;;;;;;;5.40;83.40;;;;;;4158813;28;20164;-85
2024/01/27 02:13:46;;;;;;;;;;;5.30;83.30;;;;;;4158165;28;20332;-86
2024/01/27 02:16:07;;;;;;;;;;;5.40;83.30;;;;;;4158133;28;20317;-86
2024/01/27 02:18:27;;;;;;;;;;;5.30;83.30;;;;;;4153206;28;21455;-85
2024/01/27 02:20:46;;;;;;;;;;;5.30;83.30;;;;;;4159068;28;19923;-87
2024/01/27 02:22:47;;;;;;;;;;;5.30;83.30;;;;;;4157148;28;20389;-84
2024/01/27 02:24:47;;;;;;;;;;;5.40;83.40;;;;;;4156900;28;20051;-83
2024/01/27 02:26:48;;;;;;;;;;;5.20;83.30;;;;;;4154886;28;19921;-83
2024/01/27 02:28:48;;;;;;;;;;;5.20;83.30;;;;;;4159528;28;19921;-84
2024/01/27 02:31:03;;;;;;;;;;;5.20;83.30;;;;;;4153405;28;19913;-82
2024/01/27 02:33:03;;;;;;;;;;;5.20;83.30;;;;;;4160512;28;22139;-84
2024/01/27 02:35:04;;;;;;;;;;;5.20;83.50;;;;;;4156692;28;20020;-85
2024/01/27 02:37:05;;;;;;;;;;;5.20;83.40;;;;;;4158211;28;19913;-85
2024/01/27 02:39:06;;;;;;;;;;;5.20;83.30;;;;;;4154218;28;19925;-85
2024/01/27 02:41:07;;;;;;;;;;;5.20;83.30;;;;;;4159553;28;19913;-86
2024/01/27 02:43:27;;;;;;;;;;;5.20;83.50;;;;;;4153532;28;20052;-84
2024/01/27 02:45:48;;;;;;;;;;;5.20;83.60;;;;;;4158897;28;19921;-83
2024/01/27 02:48:08;;;;;;;;;;;5.20;83.60;;;;;;4160084;28;19921;-84
2024/01/27 02:50:29;;;;;;;;;;;5.20;83.60;;;;;;4161171;28;20447;-84
2024/01/27 02:52:49;;;;;;;;;;;5.20;83.80;;;;;;4155933;28;20471;-84
2024/01/27 02:55:10;;;;;;;;;;;5.10;83.80;;;;;;4160004;28;20294;-84
2024/01/27 02:57:30;;;;;;;;;;;5.20;83.90;;;;;;4154954;28;20393;-83
2024/01/27 02:59:51;;;;;;;;;;;5.30;84.10;;;;;;4163505;28;20341;-85
2024/01/27 03:02:12;;;;;;;;;;;5.10;84.00;;;;;;4160964;28;20618;-83
2024/01/27 03:04:12;;;;;;;;;;;5.10;84.00;;;;;;4160717;28;19971;-84
2024/01/27 03:06:13;;;;;;;;;;;5.10;84.10;;;;;;4160371;28;19921;-84
2024/01/27 03:08:14;;;;;;;;;;;5.10;84.10;;;;;;4152993;28;19921;-84
2024/01/27 03:10:14;;;;;;;;;;;5.10;84.10;;;;;;4154677;28;20024;-83
2024/01/27 03:12:15;;;;;;;;;;;5.10;84.10;;;;;;4158753;28;20427;-84
2024/01/27 03:14:16;;;;;;;;;;;5.10;84.20;;;;;;4161322;28;19957;-84
2024/01/27 03:16:18;;;;;;;;;;;5.10;84.10;;;;;;4160166;28;19932;-83
2024/01/27 03:18:19;;;;;;;;;;;5.10;84.10;;;;;;4156064;28;20330;-82
2024/01/27 03:20:19;;;;;;;;;;;5.10;84.20;;;;;;4160707;28;19928;-84
2024/01/27 03:22:20;;;;;;;;;;;5.10;84.10;;;;;;4161012;28;21110;-82
2024/01/27 03:24:21;;;;;;;;;;;5.10;84.10;;;;;;4160781;28;19921;-84
2024/01/27 03:26:21;;;;;;;;;;;5.10;84.20;;;;;;4155682;28;20047;-84
2024/01/27 03:28:22;;;;;;;;;;;5.10;84.20;;;;;;4157919;28;20007;-85
2024/01/27 03:30:23;;;;;;;;;;;5.10;84.10;;;;;;4166340;28;19921;-85
2024/01/27 03:32:23;;;;;;;;;;;5.20;84.20;;;;;;4174733;28;21147;-85
2024/01/27 03:34:24;;;;;;;;;;;5.10;84.20;;;;;;4153458;28;19944;-84
2024/01/27 03:36:25;;;;;;;;;;;5.10;84.20;;;;;;4151259;28;19921;-86
2024/01/27 03:38:26;;;;;;;;;;;5.10;84.20;;;;;;4164291;28;20011;-82
2024/01/27 03:40:26;;;;;;;;;;;5.10;84.20;;;;;;4162766;28;19921;-83
2024/01/27 03:42:47;;;;;;;;;;;5.10;84.10;;;;;;4169631;28;20676;-83
2024/01/27 03:45:07;;;;;;;;;;;5.10;84.10;;;;;;4165684;28;19924;-83
2024/01/27 03:47:28;;;;;;;;;;;5.10;84.10;;;;;;4165148;28;19924;-82
2024/01/27 03:49:48;;;;;;;;;;;5.10;84.10;;;;;;4160605;28;19929;-83
2024/01/27 03:52:10;;;;;;;;;;;5.00;84.10;;;;;;4162904;28;20483;-83
2024/01/27 03:54:30;;;;;;;;;;;5.10;84.20;;;;;;4163979;28;21404;-83
2024/01/27 03:56:50;;;;;;;;;;;5.10;84.20;;;;;;4162575;28;20974;-82
2024/01/27 03:58:56;;;;;;;;;;;5.10;84.30;;;;;;4145538;28;19925;-81
2024/01/27 04:01:17;;;;;;;;;;;5.10;84.20;;;;;;4160467;28;20770;-82
2024/01/27 04:03:37;;;;;;;;;;;5.10;84.20;;;;;;4159161;28;20428;-83
2024/01/27 04:05:58;;;;;;;;;;;5.10;84.20;;;;;;4160193;28;20404;-82
2024/01/27 04:08:18;;;;;;;;;;;5.10;84.20;;;;;;4160593;28;20652;-82
2024/01/27 04:10:39;;;;;;;;;;;5.10;84.20;;;;;;4160446;28;20623;-82
2024/01/27 04:13:00;;;;;;;;;;;5.10;84.30;;;;;;4157207;28;20418;-83
2024/01/27 04:15:20;;;;;;;;;;;5.10;84.20;;;;;;4154441;28;19921;-83
2024/01/27 04:17:41;;;;;;;;;;;5.10;84.30;;;;;;4162966;28;20392;-83
2024/01/27 04:20:02;;;;;;;;;;;5.10;84.30;;;;;;4161630;28;20432;-83
2024/01/27 04:22:22;;;;;;;;;;;5.10;84.20;;;;;;4159468;28;20336;-83
2024/01/27 04:24:43;;;;;;;;;;;5.20;84.30;;;;;;4159126;28;20547;-83
2024/01/27 04:26:59;;;;;;;;;;;5.10;84.20;;;;;;4142734;28;19921;-83
2024/01/27 04:29:19;;;;;;;;;;;5.10;84.20;;;;;;4161142;28;21307;-84
2024/01/27 04:31:40;;;;;;;;;;;5.10;85.00;;;;;;4158375;28;20326;-82
2024/01/27 04:34:01;;;;;;;;;;;5.10;84.30;;;;;;4157303;28;20972;-83
2024/01/27 04:36:02;;;;;;;;;;;5.10;84.40;;;;;;4158319;28;19932;-83
2024/01/27 04:38:03;;;;;;;;;;;5.10;84.40;;;;;;4161690;28;19933;-84
2024/01/27 04:40:23;;;;;;;;;;;5.10;84.40;;;;;;4160260;28;21296;-84
2024/01/27 04:42:44;;;;;;;;;;;5.10;84.50;;;;;;4155581;28;19943;-85
2024/01/27 04:45:05;;;;;;;;;;;5.10;84.40;;;;;;4155829;28;20306;-83
2024/01/27 04:47:25;;;;;;;;;;;5.10;84.40;;;;;;4158458;28;20078;-84
2024/01/27 04:49:46;;;;;;;;;;;5.30;84.60;;;;;;4162417;28;19920;-82
2024/01/27 04:52:06;;;;;;;;;;;5.10;84.30;;;;;;4161202;28;20340;-84
2024/01/27 04:54:27;;;;;;;;;;;5.10;84.40;;;;;;4156357;28;20457;-84
2024/01/27 04:56:47;;;;;;;;;;;5.10;84.40;;;;;;4159220;28;19990;-82
2024/01/27 04:59:08;;;;;;;;;;;5.10;84.30;;;;;;4164746;28;20090;-83
2024/01/27 05:01:28;;;;;;;;;;;5.10;84.30;;;;;;4165912;28;19924;-83
2024/01/27 05:03:49;;;;;;;;;;;5.10;84.30;;;;;;4164576;28;20437;-84
2024/01/27 05:06:10;;;;;;;;;;;5.10;84.30;;;;;;4161097;28;20564;-84
2024/01/27 05:08:30;;;;;;;;;;;5.00;84.30;;;;;;4162551;28;19921;-84
2024/01/27 05:10:51;;;;;;;;;;;5.10;84.30;;;;;;4159175;28;19921;-83
2024/01/27 05:13:11;;;;;;;;;;;5.00;84.30;;;;;;4161369;28;20377;-84
2024/01/27 05:15:12;;;;;;;;;;;5.00;84.40;;;;;;4157508;28;19916;-80
2024/01/27 05:17:13;;;;;;;;;;;5.00;84.50;;;;;;4159971;28;20078;-80
2024/01/27 05:19:15;;;;;;;;;;;5.00;84.60;;;;;;4162692;28;19928;-79
2024/01/27 05:21:15;;;;;;;;;;;5.00;84.60;;;;;;4163088;28;20556;-79
2024/01/27 05:23:16;;;;;;;;;;;5.00;84.40;;;;;;4160714;28;19948;-80
2024/01/27 05:25:16;;;;;;;;;;;5.10;84.70;;;;;;4164847;28;19921;-78
2024/01/27 05:27:17;;;;;;;;;;;5.00;84.70;;;;;;4169085;28;19914;-80
2024/01/27 05:29:17;;;;;;;;;;;5.00;84.60;;;;;;4148250;28;20051;-80
2024/01/27 05:31:18;;;;;;;;;;;5.00;84.60;;;;;;4165095;28;19947;-78
2024/01/27 05:33:19;;;;;;;;;;;5.00;84.60;;;;;;4159367;28;20043;-78
2024/01/27 05:35:19;;;;;;;;;;;5.00;84.60;;;;;;4157427;28;19952;-79
2024/01/27 05:37:20;;;;;;;;;;;5.00;84.50;;;;;;4160920;28;20429;-79
2024/01/27 05:39:20;;;;;;;;;;;5.00;84.60;;;;;;4162144;28;19917;-80
2024/01/27 05:41:25;;;;;;;;;;;5.00;84.70;;;;;;4165304;28;20155;-78
2024/01/27 05:43:25;;;;;;;;;;;5.00;84.70;;;;;;4163196;28;20365;-80
2024/01/27 05:45:26;;;;;;;;;;;5.00;84.70;;;;;;4158653;28;19921;-79
2024/01/27 05:47:27;;;;;;;;;;;4.90;84.50;;;;;;4157810;28;19960;-80
2024/01/27 05:49:27;;;;;;;;;;;4.90;84.50;;;;;;4159024;28;20738;-79
2024/01/27 05:51:28;;;;;;;;;;;4.90;84.60;;;;;;4157424;28;19931;-79
2024/01/27 05:53:29;;;;;;;;;;;4.90;84.60;;;;;;4164088;28;20028;-79
2024/01/27 05:55:42;;;;;;;;;;;4.90;84.60;;;;;;4162395;28;19921;-77
2024/01/27 05:57:42;;;;;;;;;;;4.90;84.50;;;;;;4163177;28;19928;-79
2024/01/27 05:59:43;;;;;;;;;;;4.90;84.60;;;;;;4178813;28;19928;-79
2024/01/27 06:01:47;;;;;;;;;;;4.90;84.80;;;;;;4161436;28;20452;-77
2024/01/27 06:03:51;;;;;;;;;;;4.90;84.80;;;;;;4176627;28;19927;-78
2024/01/27 06:05:55;;;;;;;;;;;4.90;84.60;;;;;;4161382;28;19932;-79
2024/01/27 06:08:15;;;;;;;;;;;4.90;84.70;;;;;;4154603;28;20624;-78
2024/01/27 06:10:36;;;;;;;;;;;4.90;84.70;;;;;;4158154;28;19991;-79
2024/01/27 06:12:39;;;;;;;;;;;4.90;84.60;;;;;;4154360;28;19921;-77
2024/01/27 06:15:00;;;;;;;;;;;4.80;84.40;;;;;;4159317;28;19921;-78
2024/01/27 06:17:20;;;;;;;;;;;4.90;84.50;;;;;;4159502;28;20008;-78
2024/01/27 06:19:32;;;;;;;;;;;4.90;84.50;;;;;;4143183;28;20763;-79
2024/01/27 06:21:53;;;;;;;;;;;4.80;84.40;;;;;;4158096;28;19998;-79
2024/01/27 06:24:14;;;;;;;;;;;4.80;84.30;;;;;;4158565;28;19925;-78
2024/01/27 06:26:34;;;;;;;;;;;4.80;84.20;;;;;;4155754;28;20901;-79
2024/01/27 06:28:55;;;;;;;;;;;4.80;84.20;;;;;;4159286;28;19917;-79
2024/01/27 06:31:16;;;;;;;;;;;4.80;84.30;;;;;;4155233;28;20614;-78
2024/01/27 06:33:36;;;;;;;;;;;4.80;84.20;;;;;;4155481;28;21161;-79
2024/01/27 06:35:57;;;;;;;;;;;4.80;84.20;;;;;;4159097;28;19976;-79
2024/01/27 06:38:17;;;;;;;;;;;4.80;84.20;;;;;;4161373;28;20396;-80
2024/01/27 06:40:18;;;;;;;;;;;4.70;84.20;;;;;;4162497;28;19917;-78
2024/01/27 06:42:19;;;;;;;;;;;4.70;84.20;;;;;;4156158;28;19921;-80
2024/01/27 06:44:19;;;;;;;;;;;4.70;84.10;;;;;;4159355;28;20004;-79
2024/01/27 06:46:20;;;;;;;;;;;4.70;84.10;;;;;;4158792;28;19921;-78
2024/01/27 06:48:20;;;;;;;;;;;4.70;84.10;;;;;;4160194;28;19948;-79
2024/01/27 06:50:22;;;;;;;;;;;4.80;84.20;;;;;;4158270;28;19972;-79
2024/01/27 06:52:23;;;;;;;;;;;4.70;84.10;;;;;;4156302;28;19921;-79
2024/01/27 06:54:24;;;;;;;;;;;4.70;84.20;;;;;;4160033;28;20337;-78
2024/01/27 06:56:24;;;;;;;;;;;4.70;84.20;;;;;;4160175;28;19928;-80
2024/01/27 06:58:25;;;;;;;;;;;4.60;84.10;;;;;;4163115;28;19932;-79
2024/01/27 07:00:26;;;;;;;;;;;4.70;84.20;;;;;;4159794;28;19984;-79
2024/01/27 07:02:27;;;;;;;;;;;4.70;84.20;;;;;;4154428;28;19956;-79
2024/01/27 07:04:27;;;;;;;;;;;4.70;84.90;;;;;;4155238;28;19931;-78
2024/01/27 07:06:28;;;;;;;;;;;4.60;84.10;;;;;;4156728;28;19924;-79
2024/01/27 07:08:29;;;;;;;;;;;4.60;84.10;;;;;;4156905;28;19971;-80
2024/01/27 07:10:30;;;;;;;;;;;4.60;84.10;;;;;;4139058;28;20000;-78
2024/01/27 07:12:30;;;;;;;;;;;4.60;84.10;;;;;;4149309;28;20035;-78
2024/01/27 07:14:31;;;;;;;;;;;4.60;84.10;;;;;;4155749;28;19994;-79
2024/01/27 07:16:33;;;;;;;;;;;4.60;84.50;;;;;;4157986;28;19917;-79
2024/01/27 07:18:35;;;;;;;;;;;4.60;84.10;;;;;;4157875;28;20457;-78
2024/01/27 07:20:35;;;;;;;;;;;4.60;84.90;;;;;;4152703;28;19920;-79
2024/01/27 07:22:36;;;;;;;;;;;4.60;84.10;;;;;;4159868;28;19964;-78
2024/01/27 07:24:37;;;;;;;;;;;4.60;84.00;;;;;;4166474;28;19920;-79
2024/01/27 07:26:38;;;;;;;;;;;4.60;84.10;;;;;;4157709;28;19921;-80
2024/01/27 07:28:41;;;;;;;;;;;4.60;84.10;;;;;;4165059;28;19924;-79
2024/01/27 07:30:42;;;;;;;;;;;4.60;84.10;;;;;;4159524;28;19928;-80
2024/01/27 07:33:02;;;;;;;;;;;4.60;84.20;;;;;;4158896;28;20392;-81
2024/01/27 07:35:23;;;;;;;;;;;4.60;84.40;;;;;;4164820;28;19921;-79
2024/01/27 07:37:44;;;;;;;;;;;4.60;84.30;;;;;;4161915;28;20432;-80
2024/01/27 07:40:05;;;;;;;;;;;4.70;84.50;;;;;;4163194;28;20922;-80
2024/01/27 07:42:25;;;;;;;;;;;4.70;84.40;;;;;;4158694;28;20341;-80
2024/01/27 07:44:27;;;;;;;;;;;4.70;84.50;;;;;;4157846;28;19913;-79
2024/01/27 07:46:48;;;;;;;;;;;4.70;84.40;;;;;;4153804;28;20389;-78
2024/01/27 07:49:08;;;;;;;;;;;4.70;84.40;;;;;;4158642;28;20452;-80
2024/01/27 07:51:29;;;;;;;;;;;4.70;84.30;;;;;;4159767;28;19984;-81
2024/01/27 07:53:50;;;;;;;;;;;4.70;84.40;;;;;;4160395;28;21060;-80
2024/01/27 07:56:10;;;;;;;;;;;4.70;84.40;;;;;;4162672;28;20311;-80
2024/01/27 07:58:31;;;;;;;;;;;4.70;84.30;;;;;;4159540;28;20408;-80
2024/01/27 08:00:32;;;;;;;;;;;4.70;84.20;;;;;;4155186;28;19921;-80
2024/01/27 08:02:33;;;;;;;;;;;4.70;84.30;;;;;;4155156;28;20416;-80
2024/01/27 08:04:34;;;;;;;;;;;4.70;84.20;;;;;;4158590;28;19925;-79
2024/01/27 08:06:44;;;;;;;;;;;4.70;85.00;;;;;;4159649;28;19921;-81
2024/01/27 08:08:46;;;;;;;;;;;4.70;84.30;;;;;;4157760;28;19928;-81
2024/01/27 08:10:46;;;;;;;;;;;4.80;84.30;;;;;;4159225;28;19921;-80
2024/01/27 08:12:47;;;;;;;;;;;4.80;84.40;;;;;;4160175;28;19921;-79
2024/01/27 08:14:48;;;;;;;;;;;4.80;84.40;;;;;;4160297;28;19921;-81
2024/01/27 08:16:49;;;;;;;;;;;4.90;84.50;;;;;;4161664;28;19913;-81
2024/01/27 08:18:49;;;;;;;;;;;4.80;84.30;;;;;;4142359;28;19925;-80
2024/01/27 08:20:50;;;;;;;;;;;4.80;84.30;;;;;;4157599;28;19921;-80
2024/01/27 08:22:51;;;;;;;;;;;4.80;84.40;;;;;;4158411;28;19981;-80
2024/01/27 08:24:55;;;;;;;;;;;4.80;84.30;;;;;;4156211;28;19921;-79
2024/01/27 08:26:56;;;;;;;;;;;4.80;84.30;;;;;;4158546;28;20405;-80
2024/01/27 08:28:59;;;;;;;;;;;4.80;84.40;;;;;;4158882;28;19948;-80
2024/01/27 08:31:01;;;;;;;;;;;4.80;84.40;;;;;;4160971;28;19924;-80
2024/01/27 08:33:02;;;;;;;;;;;4.80;84.40;;;;;;4158478;28;20250;-79
2024/01/27 08:35:23;;;;;;;;;;;4.80;84.40;;;;;;4157746;28;19929;-79
2024/01/27 08:37:43;;;;;;;;;;;4.80;84.40;;;;;;4162877;28;19923;-79
2024/01/27 08:40:07;;;;;;;;;;;4.80;84.40;;;;;;4159836;28;19925;-79
2024/01/27 08:42:28;;;;;;;;;;;4.80;84.50;;;;;;4163689;28;20012;-80
2024/01/27 08:44:48;;;;;;;;;;;4.80;84.50;;;;;;4155180;28;19921;-79
2024/01/27 08:47:08;;;;;;;;;;;4.80;84.50;;;;;;4156305;28;21205;-80
2024/01/27 08:49:29;;;;;;;;;;;4.90;84.60;;;;;;4153059;28;20338;-79
2024/01/27 08:51:49;;;;;;;;;;;4.90;84.60;;;;;;4146367;28;19931;-78
2024/01/27 08:54:10;;;;;;;;;;;5.00;84.70;;;;;;4144780;28;19982;-79
2024/01/27 08:56:13;;;;;;;;;;;4.90;84.80;;;;;;4155131;28;19933;-80
2024/01/27 08:58:14;;;;;;;;;;;4.90;84.80;;;;;;4141618;28;19924;-79
2024/01/27 09:00:16;;;;;;;;;;;5.00;84.80;;;;;;4155036;28;19917;-80
2024/01/27 09:02:17;;;;;;;;;;;5.00;84.80;;;;;;4154949;28;20353;-79
2024/01/27 09:04:17;;;;;;;;;;;5.00;84.90;;;;;;4153951;28;19924;-80
2024/01/27 09:06:18;;;;;;;;;;;5.00;85.00;;;;;;4157630;28;20298;-80
2024/01/27 09:08:19;;;;;;;;;;;5.00;85.00;;;;;;4156303;28;19920;-79
2024/01/27 09:10:20;;;;;;;;;;;5.10;85.10;;;;;;4159301;28;20560;-79
2024/01/27 09:12:21;;;;;;;;;;;5.20;85.20;;;;;;4153887;28;19928;-80
2024/01/27 09:14:22;;;;;;;;;;;5.10;85.10;;;;;;4155205;28;19921;-80
2024/01/27 09:16:25;;;;;;;;;;;5.20;85.10;;;;;;4152845;28;19959;-79
2024/01/27 09:18:26;;;;;;;;;;;5.20;85.30;;;;;;4162859;28;19924;-79
2024/01/27 09:20:27;;;;;;;;;;;5.20;85.40;;;;;;4165679;28;20009;-80
2024/01/27 09:22:28;;;;;;;;;;;5.30;85.40;;;;;;4163142;28;19929;-79
2024/01/27 09:24:45;;;;;;;;;;;5.30;85.40;;;;;;4156685;28;19920;-80
2024/01/27 09:27:06;;;;;;;;;;;5.30;85.40;;;;;;4158496;28;20346;-80
2024/01/27 09:29:06;;;;;;;;;;;5.40;85.50;;;;;;4158126;28;19951;-79
2024/01/27 09:31:28;;;;;;;;;;;5.40;85.50;;;;;;4158468;28;19921;-81
2024/01/27 09:33:52;;;;;;;;;;;5.40;85.50;;;;;;4155932;28;19928;-80
2024/01/27 09:36:13;;;;;;;;;;;5.50;85.60;;;;;;4158250;28;20504;-81
2024/01/27 09:38:33;;;;;;;;;;;5.50;85.70;;;;;;4155644;28;20413;-79
2024/01/27 09:40:54;;;;;;;;;;;5.60;85.80;;;;;;4153538;28;20402;-80
2024/01/27 09:43:16;;;;;;;;;;;5.60;85.80;;;;;;4156593;28;19940;-80
2024/01/27 09:45:36;;;;;;;;;;;5.70;85.90;;;;;;4156899;28;20578;-79
2024/01/27 09:48:00;;;;;;;;;;;5.80;86.00;;;;;;4159956;28;20343;-80
2024/01/27 09:50:21;;;;;;;;;;;5.80;85.90;;;;;;4154298;28;20291;-80
2024/01/27 09:52:42;;;;;;;;;;;5.90;86.00;;;;;;4153924;28;20554;-81
2024/01/27 09:54:42;;;;;;;;;;;5.90;85.90;;;;;;4154318;28;19932;-81
2024/01/27 09:56:43;;;;;;;;;;;6.00;86.00;;;;;;4154704;28;19932;-80
2024/01/27 09:58:46;;;;;;;;;;;6.00;85.90;;;;;;4159885;28;19960;-81
2024/01/27 10:00:47;;;;;;;;;;;6.00;85.90;;;;;;4156979;28;20369;-80
2024/01/27 10:02:48;;;;;;;;;;;6.10;85.90;;;;;;4156051;28;19920;-81
2024/01/27 10:04:49;;;;;;;;;;;6.10;85.90;;;;;;4153268;28;19928;-80
2024/01/27 10:06:50;;;;;;;;;;;6.20;86.00;;;;;;4156450;28;19925;-81
2024/01/27 10:08:54;;;;;;;;;;;6.20;85.90;;;;;;4158174;28;20003;-79
2024/01/27 10:10:58;;;;;;;;;;;6.20;85.70;;;;;;4158332;28;20291;-79
2024/01/27 10:13:00;;;;;;;;;;;6.30;85.90;;;;;;4154430;28;19929;-80
2024/01/27 10:15:01;;;;;;;;;;;6.30;85.80;;;;;;4153778;28;20444;-81
2024/01/27 10:17:02;;;;;;;;;;;6.30;85.70;;;;;;4154821;28;20469;-80
2024/01/27 10:19:03;;;;;;;;;;;6.40;85.80;;;;;;4158156;28;19960;-80
2024/01/27 10:21:14;;;;;;;;;;;6.40;85.70;;;;;;4156763;28;19927;-81
2024/01/27 10:23:14;;;;;;;;;;;6.40;86.50;;;;;;4155018;28;19920;-81
2024/01/27 10:25:16;;;;;;;;;;;6.50;85.70;;;;;;4156525;28;20484;-80
2024/01/27 10:27:18;;;;;;;;;;;6.50;85.60;;;;;;4139578;28;19921;-80
2024/01/27 10:29:23;;;;;;;;;;;6.60;85.70;;;;;;4138921;28;19928;-80
2024/01/27 10:31:27;;;;;;;;;;;6.60;85.80;;;;;;4149641;28;20381;-80
2024/01/27 10:33:31;;;;;;;;;;;6.60;85.70;;;;;;4154928;28;19920;-78
2024/01/27 10:35:33;;;;;;;;;;;6.80;85.70;;;;;;4152678;28;19921;-79
2024/01/27 10:37:54;;;;;;;;;;;6.70;85.70;;;;;;4153609;28;19946;-81
2024/01/27 10:40:01;;;;;;;;;;;6.80;85.40;;;;;;4158281;28;20427;-80
2024/01/27 10:42:21;;;;;;;;;;;6.80;85.40;;;;;;4156629;28;19917;-80
2024/01/27 10:44:43;;;;;;;;;;;6.80;85.20;;;;;;4155155;28;19944;-81
2024/01/27 10:47:04;;;;;;;;;;;6.80;85.10;;;;;;4152459;28;20025;-80
2024/01/27 10:49:25;;;;;;;;;;;6.80;85.10;;;;;;4156809;28;19913;-80
2024/01/27 10:51:50;;;;;;;;;;;7.00;85.00;;;;;;4157931;28;20452;-80
2024/01/27 10:54:13;;;;;;;;;;;6.90;84.90;;;;;;4158610;28;20425;-81
2024/01/27 10:56:34;;;;;;;;;;;7.00;84.90;;;;;;4155912;28;19925;-81
2024/01/27 10:58:40;;;;;;;;;;;7.00;84.80;;;;;;4158630;28;19936;-81
2024/01/27 11:00:43;;;;;;;;;;;7.10;84.70;;;;;;4164017;28;19928;-82
2024/01/27 11:02:44;;;;;;;;;;;7.00;84.50;;;;;;4160096;28;19921;-80
2024/01/27 11:04:47;;;;;;;;;;;7.10;84.40;;;;;;4160503;28;19921;-81
2024/01/27 11:06:49;;;;;;;;;;;7.10;84.10;;;;;;4161107;28;19913;-82
2024/01/27 11:08:50;;;;;;;;;;;7.10;84.20;;;;;;4162203;28;19921;-82
2024/01/27 11:10:51;;;;;;;;;;;7.10;83.80;;;;;;4146256;28;20007;-82
2024/01/27 11:12:54;;;;;;;;;;;7.10;84.00;;;;;;4162302;28;20356;-81
2024/01/27 11:14:58;;;;;;;;;;;7.10;84.00;;;;;;4164914;28;19973;-81
2024/01/27 11:16:59;;;;;;;;;;;7.10;84.00;;;;;;4164835;28;20038;-80
2024/01/27 11:19:00;;;;;;;;;;;7.20;83.50;;;;;;4158224;28;19924;-82
2024/01/27 11:21:00;;;;;;;;;;;7.20;83.70;;;;;;4153849;28;19925;-82
2024/01/27 11:23:11;;;;;;;;;;;7.20;83.70;;;;;;4157606;28;21079;-81
2024/01/27 11:25:14;;;;;;;;;;;7.20;83.70;;;;;;4161502;28;20040;-82
2024/01/27 11:27:26;;;;;;;;;;;7.20;83.70;;;;;;4161957;28;19964;-82
2024/01/27 11:29:48;;;;;;;;;;;7.20;83.60;;;;;;4161423;28;19944;-79
2024/01/27 11:32:09;;;;;;;;;;;7.30;83.60;;;;;;4173954;28;19920;-81
2024/01/27 11:34:43;;;;;;;;;;;7.20;83.30;;;;;;4174279;28;20000;-82
2024/01/27 11:37:10;;;;;;;;;;;7.30;83.50;;;;;;4171541;28;19921;-81
2024/01/27 11:39:30;;;;;;;;;;;7.30;83.30;;;;;;4178262;28;19929;-79
2024/01/27 11:41:51;;;;;;;;;;;7.40;83.50;;;;;;4168489;28;20614;-81
2024/01/27 11:44:13;;;;;;;;;;;7.40;83.60;;;;;;4163622;28;20277;-82
2024/01/27 11:46:33;;;;;;;;;;;7.40;83.60;;;;;;4162281;28;20345;-81
2024/01/27 11:48:54;;;;;;;;;;;7.40;83.40;;;;;;4162579;28;19921;-82
2024/01/27 11:51:15;;;;;;;;;;;7.50;83.50;;;;;;4157031;28;20728;-82
2024/01/27 11:53:36;;;;;;;;;;;7.50;83.50;;;;;;4155402;28;20492;-82
2024/01/27 11:55:37;;;;;;;;;;;7.50;83.50;;;;;;4157504;28;19921;-82
2024/01/27 11:57:37;;;;;;;;;;;7.60;83.60;;;;;;4161315;28;20394;-79
2024/01/27 11:59:38;;;;;;;;;;;7.60;83.50;;;;;;4162591;28;19925;-80
2024/01/27 12:01:39;;;;;;;;;;;7.60;83.30;;;;;;4159002;28;19921;-82
2024/01/27 12:03:39;;;;;;;;;;;7.60;83.10;;;;;;4157224;28;19921;-82
2024/01/27 12:05:40;;;;;;;;;;;7.70;82.50;;;;;;4158342;28;19932;-83
2024/01/27 12:07:41;;;;;;;;;;;7.80;82.80;;;;;;4153020;28;19932;-82
2024/01/27 12:09:41;;;;;;;;;;;7.70;82.80;;;;;;4155690;28;19960;-81
2024/01/27 12:11:42;;;;;;;;;;;7.80;82.60;;;;;;4159374;28;19921;-79
2024/01/27 12:13:42;;;;;;;;;;;7.70;82.60;;;;;;4156584;28;19917;-81
2024/01/27 12:15:43;;;;;;;;;;;7.80;82.60;;;;;;4160250;28;20003;-80
2024/01/27 12:17:49;;;;;;;;;;;7.80;81.90;;;;;;4159213;28;19968;-82
2024/01/27 12:19:53;;;;;;;;;;;7.80;81.40;;;;;;4158311;28;20067;-80
2024/01/27 12:21:54;;;;;;;;;;;7.70;80.90;;;;;;4162083;28;19924;-80
2024/01/27 12:23:56;;;;;;;;;;;7.70;81.30;;;;;;4160898;28;19921;-80
2024/01/27 12:25:57;;;;;;;;;;;7.80;81.60;;;;;;4158146;28;19994;-80
2024/01/27 12:28:19;;;;;;;;;;;7.80;81.60;;;;;;4159333;28;20421;-80
2024/01/27 12:30:40;;;;;;;;;;;7.80;81.50;;;;;;4158004;28;20366;-84
2024/01/27 12:33:00;;;;;;;;;;;7.80;81.40;;;;;;4152391;28;20302;-82
2024/01/27 12:35:21;;;;;;;;;;;7.80;81.40;;;;;;4158035;28;19917;-83
2024/01/27 12:37:30;;;;;;;;;;;7.80;81.30;;;;;;4157732;28;19975;-83
2024/01/27 12:39:50;;;;;;;;;;;7.80;81.00;;;;;;4140918;28;19921;-83
2024/01/27 12:42:11;;;;;;;;;;;7.80;81.20;;;;;;4156670;28;19964;-84
2024/01/27 12:44:32;;;;;;;;;;;7.90;81.40;;;;;;4156788;28;21176;-83
2024/01/27 12:46:53;;;;;;;;;;;7.90;81.40;;;;;;4154888;28;19921;-81
2024/01/27 12:48:53;;;;;;;;;;;7.80;81.30;;;;;;4152861;28;20354;-83